sensor_id;sensor_type;location;lat;lon;timestamp;P1;durP1;ratioP1;P2;durP2;ratioP2
74519;SDS011;63002;48.134;-1.948;2024-01-10T06:02:37;6.95;;;2.42;;
74519;SDS011;63002;48.134;-1.948;2024-01-10T06:05:13;7.57;;;2.20;;
74519;SDS011;63002;48.134;-1.948;2024-01-10T06:07:39;7.07;;;2.60;;
74519;SDS011;63002;48.134;-1.948;2024-01-10T06:10:07;9.00;;;3.28;;
74519;SDS011;63002;48.134;-1.948;2024-01-10T06:12:34;7.95;;;2.30;;
74519;SDS011;63002;48.134;-1.948;2024-01-10T06:15:04;8.05;;;2.67;;
74519;SDS011;63002;48.134;-1.948;2024-01-10T06:17:33;8.00;;;2.47;;
74519;SDS011;63002;48.134;-1.948;2024-01-10T06:19:59;14.65;;;3.33;;
74519;SDS011;63002;48.134;-1.948;2024-01-10T06:22:25;11.32;;;3.13;;
74519;SDS011;63002;48.134;-1.948;2024-01-10T06:24:51;14.85;;;3.38;;
74519;SDS011;63002;48.134;-1.948;2024-01-10T06:27:17;13.80;;;3.30;;
74519;SDS011;63002;48.134;-1.948;2024-01-10T06:29:43;19.20;;;7.88;;
74519;SDS011;63002;48.134;-1.948;2024-01-10T06:32:12;12.10;;;3.78;;
74519;SDS011;63002;48.134;-1.948;2024-01-10T06:34:39;46.73;;;11.73;;
74519;SDS011;63002;48.134;-1.948;2024-01-10T06:37:05;48.05;;;13.98;;
74519;SDS011;63002;48.134;-1.948;2024-01-10T06:39:32;36.60;;;12.02;;
74519;SDS011;63002;48.134;-1.948;2024-01-10T06:41:58;29.25;;;10.75;;
74519;SDS011;63002;48.134;-1.948;2024-01-10T06:44:24;20.70;;;6.60;;
74519;SDS011;63002;48.134;-1.948;2024-01-10T06:46:49;27.30;;;9.00;;
74519;SDS011;63002;48.134;-1.948;2024-01-10T06:49:16;16.55;;;6.22;;
74519;SDS011;63002;48.134;-1.948;2024-01-10T06:51:41;12.17;;;4.00;;
74519;SDS011;63002;48.134;-1.948;2024-01-10T06:54:07;16.20;;;4.00;;
74519;SDS011;63002;48.134;-1.948;2024-01-10T06:56:33;14.23;;;4.32;;
74519;SDS011;63002;48.134;-1.948;2024-01-10T06:59:00;10.02;;;3.70;;
74519;SDS011;63002;48.134;-1.948;2024-01-10T07:01:27;12.48;;;3.45;;
74519;SDS011;63002;48.134;-1.948;2024-01-10T07:03:53;13.07;;;3.50;;
74519;SDS011;63002;48.134;-1.948;2024-01-10T07:06:22;14.50;;;3.67;;
74519;SDS011;63002;48.134;-1.948;2024-01-10T07:08:48;10.27;;;3.20;;
74519;SDS011;63002;48.134;-1.948;2024-01-10T07:11:15;10.27;;;3.25;;
74519;SDS011;63002;48.134;-1.948;2024-01-10T07:13:41;14.18;;;3.28;;
74519;SDS011;63002;48.134;-1.948;2024-01-10T07:16:08;9.70;;;2.70;;
74519;SDS011;63002;48.134;-1.948;2024-01-10T07:18:34;12.48;;;4.38;;
74519;SDS011;63002;48.134;-1.948;2024-01-10T07:20:59;12.15;;;4.90;;
74519;SDS011;63002;48.134;-1.948;2024-01-10T07:23:25;13.20;;;3.63;;
74519;SDS011;63002;48.134;-1.948;2024-01-10T07:25:51;11.32;;;5.00;;
74519;SDS011;63002;48.134;-1.948;2024-01-10T07:28:17;13.95;;;3.85;;
74519;SDS011;63002;48.134;-1.948;2024-01-10T07:30:43;14.17;;;6.10;;
74519;SDS011;63002;48.134;-1.948;2024-01-10T07:33:10;19.95;;;5.70;;
74519;SDS011;63002;48.134;-1.948;2024-01-10T07:35:36;12.05;;;4.22;;
74519;SDS011;63002;48.134;-1.948;2024-01-10T07:38:03;14.98;;;5.13;;
74519;SDS011;63002;48.134;-1.948;2024-01-10T07:40:32;18.30;;;5.20;;
74519;SDS011;63002;48.134;-1.948;2024-01-10T07:42:58;11.03;;;3.37;;
74519;SDS011;63002;48.134;-1.948;2024-01-10T07:45:24;14.18;;;4.60;;
74519;SDS011;63002;48.134;-1.948;2024-01-10T07:47:50;10.90;;;3.60;;
74519;SDS011;63002;48.134;-1.948;2024-01-10T07:50:15;11.45;;;3.65;;
74519;SDS011;63002;48.134;-1.948;2024-01-10T07:52:42;11.17;;;3.10;;
74519;SDS011;63002;48.134;-1.948;2024-01-10T07:55:08;22.85;;;5.07;;
74519;SDS011;63002;48.134;-1.948;2024-01-10T07:57:34;13.65;;;3.42;;
74519;SDS011;63002;48.134;-1.948;2024-01-10T08:00:02;19.60;;;8.43;;
74519;SDS011;63002;48.134;-1.948;2024-01-10T08:02:29;18.23;;;6.03;;
74519;SDS011;63002;48.134;-1.948;2024-01-10T08:04:59;16.73;;;5.85;;
74519;SDS011;63002;48.134;-1.948;2024-01-10T08:07:25;19.60;;;7.07;;
74519;SDS011;63002;48.134;-1.948;2024-01-10T08:09:51;12.85;;;3.53;;
74519;SDS011;63002;48.134;-1.948;2024-01-10T08:12:17;12.90;;;3.80;;
74519;SDS011;63002;48.134;-1.948;2024-01-10T08:14:43;10.35;;;3.17;;
74519;SDS011;63002;48.134;-1.948;2024-01-10T08:17:11;10.30;;;3.22;;
74519;SDS011;63002;48.134;-1.948;2024-01-10T08:19:37;7.75;;;2.70;;
74519;SDS011;63002;48.134;-1.948;2024-01-10T08:22:03;8.73;;;2.70;;
74519;SDS011;63002;48.134;-1.948;2024-01-10T08:24:29;7.88;;;2.35;;
74519;SDS011;63002;48.134;-1.948;2024-01-10T08:26:55;9.10;;;2.70;;
74519;SDS011;63002;48.134;-1.948;2024-01-10T08:29:22;8.13;;;2.60;;
74519;SDS011;63002;48.134;-1.948;2024-01-10T08:31:47;8.77;;;2.60;;
74519;SDS011;63002;48.134;-1.948;2024-01-10T08:34:13;9.18;;;3.42;;
74519;SDS011;63002;48.134;-1.948;2024-01-10T08:36:39;8.40;;;2.47;;
74519;SDS011;63002;48.134;-1.948;2024-01-10T08:39:05;8.23;;;2.55;;
74519;SDS011;63002;48.134;-1.948;2024-01-10T08:41:31;7.30;;;2.53;;
74519;SDS011;63002;48.134;-1.948;2024-01-10T08:43:58;7.10;;;2.10;;
74519;SDS011;63002;48.134;-1.948;2024-01-10T08:46:24;7.07;;;2.10;;
74519;SDS011;63002;48.134;-1.948;2024-01-10T08:48:50;7.93;;;2.33;;
74519;SDS011;63002;48.134;-1.948;2024-01-10T08:51:16;7.63;;;2.40;;
74519;SDS011;63002;48.134;-1.948;2024-01-10T08:53:43;7.68;;;2.30;;
74519;SDS011;63002;48.134;-1.948;2024-01-10T08:56:09;8.60;;;2.33;;
74519;SDS011;63002;48.134;-1.948;2024-01-10T08:58:35;7.30;;;2.05;;
74519;SDS011;63002;48.134;-1.948;2024-01-10T09:01:01;7.93;;;2.33;;
74519;SDS011;63002;48.134;-1.948;2024-01-10T09:03:29;6.72;;;1.95;;
74519;SDS011;63002;48.134;-1.948;2024-01-10T09:05:55;8.00;;;2.33;;
74519;SDS011;63002;48.134;-1.948;2024-01-10T09:08:21;5.60;;;1.97;;
74519;SDS011;63002;48.134;-1.948;2024-01-10T09:10:47;8.43;;;2.20;;
74519;SDS011;63002;48.134;-1.948;2024-01-10T09:13:14;8.77;;;2.13;;
74519;SDS011;63002;48.134;-1.948;2024-01-10T09:15:40;6.97;;;1.90;;
74519;SDS011;63002;48.134;-1.948;2024-01-10T09:18:06;8.63;;;1.98;;
74519;SDS011;63002;48.134;-1.948;2024-01-10T09:20:31;6.77;;;2.00;;
74519;SDS011;63002;48.134;-1.948;2024-01-10T09:22:57;6.20;;;2.00;;
74519;SDS011;63002;48.134;-1.948;2024-01-10T09:25:25;6.45;;;2.28;;
74519;SDS011;63002;48.134;-1.948;2024-01-10T09:27:51;7.50;;;2.20;;
74519;SDS011;63002;48.134;-1.948;2024-01-10T09:30:16;6.13;;;1.75;;
74519;SDS011;63002;48.134;-1.948;2024-01-10T09:32:43;7.18;;;2.10;;
74519;SDS011;63002;48.134;-1.948;2024-01-10T09:35:10;6.57;;;2.17;;
74519;SDS011;63002;48.134;-1.948;2024-01-10T09:37:36;6.03;;;1.80;;
74519;SDS011;63002;48.134;-1.948;2024-01-10T09:40:02;5.97;;;2.00;;
74519;SDS011;63002;48.134;-1.948;2024-01-10T09:42:28;6.32;;;1.67;;
74519;SDS011;63002;48.134;-1.948;2024-01-10T09:44:56;7.95;;;2.03;;
74519;SDS011;63002;48.134;-1.948;2024-01-10T09:47:23;5.40;;;1.70;;
74519;SDS011;63002;48.134;-1.948;2024-01-10T09:49:49;6.97;;;1.98;;
74519;SDS011;63002;48.134;-1.948;2024-01-10T09:52:25;9.00;;;2.20;;
74519;SDS011;63002;48.134;-1.948;2024-01-10T09:54:56;5.10;;;1.75;;
74519;SDS011;63002;48.134;-1.948;2024-01-10T09:57:25;5.60;;;1.73;;
74519;SDS011;63002;48.134;-1.948;2024-01-10T09:59:51;5.95;;;1.95;;
74519;SDS011;63002;48.134;-1.948;2024-01-10T10:02:18;8.10;;;2.23;;
74519;SDS011;63002;48.134;-1.948;2024-01-10T10:05:03;7.32;;;2.13;;
74519;SDS011;63002;48.134;-1.948;2024-01-10T10:07:47;7.68;;;2.15;;
74519;SDS011;63002;48.134;-1.948;2024-01-10T10:10:14;6.93;;;2.10;;
74519;SDS011;63002;48.134;-1.948;2024-01-10T10:12:44;5.82;;;2.00;;
74519;SDS011;63002;48.134;-1.948;2024-01-10T10:15:14;7.50;;;2.30;;
74519;SDS011;63002;48.134;-1.948;2024-01-10T10:17:45;5.53;;;1.45;;
74519;SDS011;63002;48.134;-1.948;2024-01-10T10:20:22;7.03;;;1.98;;
74519;SDS011;63002;48.134;-1.948;2024-01-10T10:23:05;7.22;;;1.55;;
74519;SDS011;63002;48.134;-1.948;2024-01-10T10:25:35;8.23;;;1.90;;
74519;SDS011;63002;48.134;-1.948;2024-01-10T10:28:06;4.77;;;1.40;;
74519;SDS011;63002;48.134;-1.948;2024-01-10T10:30:32;7.18;;;1.73;;
74519;SDS011;63002;48.134;-1.948;2024-01-10T10:32:58;6.10;;;1.73;;
74519;SDS011;63002;48.134;-1.948;2024-01-10T10:35:24;5.83;;;1.97;;
74519;SDS011;63002;48.134;-1.948;2024-01-10T10:37:50;5.90;;;1.70;;
74519;SDS011;63002;48.134;-1.948;2024-01-10T10:40:17;5.57;;;1.73;;
74519;SDS011;63002;48.134;-1.948;2024-01-10T10:42:45;5.93;;;1.70;;
74519;SDS011;63002;48.134;-1.948;2024-01-10T10:45:15;6.00;;;1.92;;
74519;SDS011;63002;48.134;-1.948;2024-01-10T10:47:43;5.28;;;1.70;;
74519;SDS011;63002;48.134;-1.948;2024-01-10T10:50:23;5.55;;;1.60;;
74519;SDS011;63002;48.134;-1.948;2024-01-10T10:52:51;9.43;;;3.83;;
74519;SDS011;63002;48.134;-1.948;2024-01-10T10:55:17;8.53;;;3.73;;
74519;SDS011;63002;48.134;-1.948;2024-01-10T10:57:47;7.55;;;2.75;;
74519;SDS011;63002;48.134;-1.948;2024-01-10T11:00:14;7.70;;;2.60;;
74519;SDS011;63002;48.134;-1.948;2024-01-10T11:02:45;8.20;;;2.85;;
74519;SDS011;63002;48.134;-1.948;2024-01-10T11:05:12;7.05;;;2.30;;
74519;SDS011;63002;48.134;-1.948;2024-01-10T11:07:38;6.53;;;2.07;;
74519;SDS011;63002;48.134;-1.948;2024-01-10T11:10:11;5.97;;;1.83;;
74519;SDS011;63002;48.134;-1.948;2024-01-10T11:15:24;6.75;;;2.03;;
74519;SDS011;63002;48.134;-1.948;2024-01-10T11:18:20;5.68;;;1.90;;
74519;SDS011;63002;48.134;-1.948;2024-01-10T11:20:59;6.43;;;2.23;;
74519;SDS011;63002;48.134;-1.948;2024-01-10T11:23:53;5.43;;;1.98;;
74519;SDS011;63002;48.134;-1.948;2024-01-10T11:26:21;6.57;;;2.33;;
74519;SDS011;63002;48.134;-1.948;2024-01-10T11:28:47;6.57;;;1.88;;
74519;SDS011;63002;48.134;-1.948;2024-01-10T11:31:13;5.73;;;1.90;;
74519;SDS011;63002;48.134;-1.948;2024-01-10T11:33:40;8.00;;;2.17;;
74519;SDS011;63002;48.134;-1.948;2024-01-10T11:36:15;6.80;;;2.25;;
74519;SDS011;63002;48.134;-1.948;2024-01-10T11:38:42;7.20;;;2.30;;
74519;SDS011;63002;48.134;-1.948;2024-01-10T11:41:12;6.00;;;2.10;;
74519;SDS011;63002;48.134;-1.948;2024-01-10T11:44:12;7.30;;;1.80;;
74519;SDS011;63002;48.134;-1.948;2024-01-10T11:46:46;5.72;;;2.10;;
74519;SDS011;63002;48.134;-1.948;2024-01-10T11:49:14;6.00;;;2.03;;
74519;SDS011;63002;48.134;-1.948;2024-01-10T11:51:44;7.03;;;2.00;;
74519;SDS011;63002;48.134;-1.948;2024-01-10T11:57:03;7.80;;;1.83;;
74519;SDS011;63002;48.134;-1.948;2024-01-10T11:59:33;6.18;;;1.80;;
74519;SDS011;63002;48.134;-1.948;2024-01-10T12:02:00;5.93;;;1.73;;
74519;SDS011;63002;48.134;-1.948;2024-01-10T12:04:26;6.63;;;1.98;;
74519;SDS011;63002;48.134;-1.948;2024-01-10T12:06:55;5.93;;;2.00;;
74519;SDS011;63002;48.134;-1.948;2024-01-10T12:09:21;7.13;;;2.07;;
74519;SDS011;63002;48.134;-1.948;2024-01-10T12:11:49;5.35;;;1.65;;
74519;SDS011;63002;48.134;-1.948;2024-01-10T12:14:15;8.27;;;2.22;;
74519;SDS011;63002;48.134;-1.948;2024-01-10T12:16:41;5.70;;;2.20;;
74519;SDS011;63002;48.134;-1.948;2024-01-10T12:19:07;8.70;;;2.80;;
74519;SDS011;63002;48.134;-1.948;2024-01-10T12:21:32;11.10;;;3.63;;
74519;SDS011;63002;48.134;-1.948;2024-01-10T12:23:58;23.92;;;8.40;;
74519;SDS011;63002;48.134;-1.948;2024-01-10T12:26:24;27.23;;;10.27;;
74519;SDS011;63002;48.134;-1.948;2024-01-10T12:28:56;22.77;;;8.65;;
74519;SDS011;63002;48.134;-1.948;2024-01-10T12:31:24;26.75;;;8.90;;
74519;SDS011;63002;48.134;-1.948;2024-01-10T12:33:52;24.87;;;7.97;;
74519;SDS011;63002;48.134;-1.948;2024-01-10T12:36:21;21.85;;;8.13;;
74519;SDS011;63002;48.134;-1.948;2024-01-10T12:38:48;22.17;;;7.90;;
74519;SDS011;63002;48.134;-1.948;2024-01-10T12:41:15;23.13;;;7.25;;
74519;SDS011;63002;48.134;-1.948;2024-01-10T12:43:42;19.20;;;7.13;;
74519;SDS011;63002;48.134;-1.948;2024-01-10T12:46:11;23.93;;;7.07;;
74519;SDS011;63002;48.134;-1.948;2024-01-10T12:48:38;21.88;;;7.40;;
74519;SDS011;63002;48.134;-1.948;2024-01-10T12:51:08;17.60;;;7.43;;
74519;SDS011;63002;48.134;-1.948;2024-01-10T12:53:41;19.40;;;6.53;;
74519;SDS011;63002;48.134;-1.948;2024-01-10T12:56:09;18.37;;;7.43;;
74519;SDS011;63002;48.134;-1.948;2024-01-10T12:58:39;21.80;;;7.40;;
74519;SDS011;63002;48.134;-1.948;2024-01-10T13:01:08;20.23;;;7.18;;
74519;SDS011;63002;48.134;-1.948;2024-01-10T13:03:34;15.15;;;6.13;;
74519;SDS011;63002;48.134;-1.948;2024-01-10T13:06:00;18.90;;;6.80;;
74519;SDS011;63002;48.134;-1.948;2024-01-10T13:08:26;23.50;;;6.90;;
74519;SDS011;63002;48.134;-1.948;2024-01-10T13:10:52;22.35;;;7.07;;
74519;SDS011;63002;48.134;-1.948;2024-01-10T13:13:24;17.35;;;6.43;;
74519;SDS011;63002;48.134;-1.948;2024-01-10T13:15:49;19.13;;;6.93;;
74519;SDS011;63002;48.134;-1.948;2024-01-10T13:18:16;17.50;;;6.25;;
74519;SDS011;63002;48.134;-1.948;2024-01-10T13:20:42;18.38;;;6.72;;
74519;SDS011;63002;48.134;-1.948;2024-01-10T13:23:09;19.20;;;6.43;;
74519;SDS011;63002;48.134;-1.948;2024-01-10T13:25:35;17.20;;;6.32;;
74519;SDS011;63002;48.134;-1.948;2024-01-10T13:28:03;17.60;;;5.50;;
74519;SDS011;63002;48.134;-1.948;2024-01-10T13:30:30;16.92;;;6.28;;
74519;SDS011;63002;48.134;-1.948;2024-01-10T13:32:56;20.98;;;6.75;;
74519;SDS011;63002;48.134;-1.948;2024-01-10T13:35:23;19.08;;;6.20;;
74519;SDS011;63002;48.134;-1.948;2024-01-10T13:37:50;13.70;;;5.20;;
74519;SDS011;63002;48.134;-1.948;2024-01-10T13:40:16;16.10;;;5.60;;
74519;SDS011;63002;48.134;-1.948;2024-01-10T13:42:42;15.23;;;5.70;;
74519;SDS011;63002;48.134;-1.948;2024-01-10T13:45:09;13.68;;;5.68;;
74519;SDS011;63002;48.134;-1.948;2024-01-10T13:47:38;16.05;;;5.10;;
74519;SDS011;63002;48.134;-1.948;2024-01-10T13:50:05;16.43;;;5.57;;
74519;SDS011;63002;48.134;-1.948;2024-01-10T13:52:32;19.10;;;5.68;;
74519;SDS011;63002;48.134;-1.948;2024-01-10T13:54:59;16.15;;;5.38;;
74519;SDS011;63002;48.134;-1.948;2024-01-10T13:57:25;17.95;;;5.25;;
74519;SDS011;63002;48.134;-1.948;2024-01-10T13:59:51;22.63;;;5.28;;
74519;SDS011;63002;48.134;-1.948;2024-01-10T14:02:21;15.27;;;4.93;;
74519;SDS011;63002;48.134;-1.948;2024-01-10T14:04:48;14.18;;;5.05;;
74519;SDS011;63002;48.134;-1.948;2024-01-10T14:07:14;16.58;;;6.60;;
74519;SDS011;63002;48.134;-1.948;2024-01-10T14:09:40;18.63;;;6.07;;
74519;SDS011;63002;48.134;-1.948;2024-01-10T14:12:05;15.30;;;5.63;;
74519;SDS011;63002;48.134;-1.948;2024-01-10T14:14:31;15.15;;;4.78;;
74519;SDS011;63002;48.134;-1.948;2024-01-10T14:16:57;17.43;;;4.50;;
74519;SDS011;63002;48.134;-1.948;2024-01-10T14:19:23;13.98;;;5.60;;
74519;SDS011;63002;48.134;-1.948;2024-01-10T14:21:49;15.32;;;4.85;;
74519;SDS011;63002;48.134;-1.948;2024-01-10T14:24:15;15.17;;;4.53;;
74519;SDS011;63002;48.134;-1.948;2024-01-10T14:26:41;12.93;;;4.22;;
74519;SDS011;63002;48.134;-1.948;2024-01-10T14:29:07;10.20;;;3.80;;
74519;SDS011;63002;48.134;-1.948;2024-01-10T14:31:34;13.35;;;4.60;;
74519;SDS011;63002;48.134;-1.948;2024-01-10T14:33:59;11.20;;;4.65;;
74519;SDS011;63002;48.134;-1.948;2024-01-10T14:36:25;13.67;;;4.70;;
74519;SDS011;63002;48.134;-1.948;2024-01-10T14:38:51;11.57;;;3.75;;
74519;SDS011;63002;48.134;-1.948;2024-01-10T14:41:20;11.88;;;3.95;;
74519;SDS011;63002;48.134;-1.948;2024-01-10T14:43:46;15.00;;;4.07;;
74519;SDS011;63002;48.134;-1.948;2024-01-10T14:46:12;10.85;;;3.88;;
74519;SDS011;63002;48.134;-1.948;2024-01-10T14:48:38;10.82;;;4.07;;
74519;SDS011;63002;48.134;-1.948;2024-01-10T14:51:04;10.47;;;3.37;;
74519;SDS011;63002;48.134;-1.948;2024-01-10T14:53:30;12.27;;;3.85;;
74519;SDS011;63002;48.134;-1.948;2024-01-10T14:55:56;14.07;;;3.42;;
74519;SDS011;63002;48.134;-1.948;2024-01-10T14:58:22;10.33;;;3.87;;
74519;SDS011;63002;48.134;-1.948;2024-01-10T15:00:47;10.88;;;3.90;;
74519;SDS011;63002;48.134;-1.948;2024-01-10T15:03:13;10.50;;;3.45;;
74519;SDS011;63002;48.134;-1.948;2024-01-10T15:05:42;9.57;;;3.40;;
74519;SDS011;63002;48.134;-1.948;2024-01-10T15:08:08;10.63;;;2.78;;
74519;SDS011;63002;48.134;-1.948;2024-01-10T15:10:36;10.75;;;3.10;;
74519;SDS011;63002;48.134;-1.948;2024-01-10T15:13:09;15.23;;;3.60;;
74519;SDS011;63002;48.134;-1.948;2024-01-10T15:15:41;9.52;;;2.72;;
74519;SDS011;63002;48.134;-1.948;2024-01-10T15:18:07;11.50;;;3.43;;
74519;SDS011;63002;48.134;-1.948;2024-01-10T15:20:34;8.57;;;2.75;;
74519;SDS011;63002;48.134;-1.948;2024-01-10T15:23:00;9.07;;;3.08;;
74519;SDS011;63002;48.134;-1.948;2024-01-10T15:25:26;9.65;;;3.08;;
74519;SDS011;63002;48.134;-1.948;2024-01-10T15:27:53;9.73;;;3.00;;
74519;SDS011;63002;48.134;-1.948;2024-01-10T15:30:20;8.70;;;3.00;;
74519;SDS011;63002;48.134;-1.948;2024-01-10T15:32:48;8.85;;;2.80;;
74519;SDS011;63002;48.134;-1.948;2024-01-10T15:35:15;10.65;;;3.22;;
74519;SDS011;63002;48.134;-1.948;2024-01-10T15:37:41;11.88;;;2.85;;
74519;SDS011;63002;48.134;-1.948;2024-01-10T15:40:08;8.00;;;3.10;;
74519;SDS011;63002;48.134;-1.948;2024-01-10T15:42:36;10.05;;;2.97;;
74519;SDS011;63002;48.134;-1.948;2024-01-10T15:45:02;17.25;;;3.03;;
74519;SDS011;63002;48.134;-1.948;2024-01-10T15:47:30;11.95;;;3.22;;
74519;SDS011;63002;48.134;-1.948;2024-01-10T15:49:56;13.32;;;2.78;;
74519;SDS011;63002;48.134;-1.948;2024-01-10T15:52:22;9.03;;;2.80;;
74519;SDS011;63002;48.134;-1.948;2024-01-10T15:54:51;8.48;;;2.58;;
74519;SDS011;63002;48.134;-1.948;2024-01-10T15:57:19;7.72;;;2.80;;
74519;SDS011;63002;48.134;-1.948;2024-01-10T15:59:45;9.45;;;2.65;;
74519;SDS011;63002;48.134;-1.948;2024-01-10T16:02:11;9.40;;;2.77;;
74519;SDS011;63002;48.134;-1.948;2024-01-10T16:04:37;9.70;;;2.80;;
74519;SDS011;63002;48.134;-1.948;2024-01-10T16:07:03;7.30;;;2.33;;
74519;SDS011;63002;48.134;-1.948;2024-01-10T16:09:29;8.67;;;2.50;;
74519;SDS011;63002;48.134;-1.948;2024-01-10T16:11:55;8.43;;;2.50;;
74519;SDS011;63002;48.134;-1.948;2024-01-10T16:14:20;9.00;;;2.10;;
74519;SDS011;63002;48.134;-1.948;2024-01-10T16:16:46;8.88;;;2.60;;
74519;SDS011;63002;48.134;-1.948;2024-01-10T16:19:12;6.63;;;2.03;;
74519;SDS011;63002;48.134;-1.948;2024-01-10T16:21:38;9.20;;;2.40;;
74519;SDS011;63002;48.134;-1.948;2024-01-10T16:24:04;10.02;;;2.45;;
74519;SDS011;63002;48.134;-1.948;2024-01-10T16:26:30;9.32;;;2.53;;
74519;SDS011;63002;48.134;-1.948;2024-01-10T16:28:56;9.13;;;2.70;;
74519;SDS011;63002;48.134;-1.948;2024-01-10T16:31:22;7.70;;;2.30;;
74519;SDS011;63002;48.134;-1.948;2024-01-10T16:33:47;7.83;;;2.23;;
74519;SDS011;63002;48.134;-1.948;2024-01-10T16:36:13;10.20;;;2.20;;
74519;SDS011;63002;48.134;-1.948;2024-01-10T16:38:39;8.90;;;2.17;;
74519;SDS011;63002;48.134;-1.948;2024-01-10T16:41:06;6.90;;;2.20;;
74519;SDS011;63002;48.134;-1.948;2024-01-10T16:43:32;8.13;;;2.03;;
74519;SDS011;63002;48.134;-1.948;2024-01-10T16:45:58;12.23;;;2.40;;
74519;SDS011;63002;48.134;-1.948;2024-01-10T16:48:25;7.05;;;2.33;;
74519;SDS011;63002;48.134;-1.948;2024-01-10T16:50:50;7.67;;;2.30;;
74519;SDS011;63002;48.134;-1.948;2024-01-10T16:53:16;6.90;;;2.40;;
74519;SDS011;63002;48.134;-1.948;2024-01-10T16:55:42;6.85;;;2.22;;
74519;SDS011;63002;48.134;-1.948;2024-01-10T16:58:08;9.13;;;2.30;;
74519;SDS011;63002;48.134;-1.948;2024-01-10T17:00:33;12.35;;;5.32;;
74519;SDS011;63002;48.134;-1.948;2024-01-10T17:02:59;8.87;;;3.50;;
74519;SDS011;63002;48.134;-1.948;2024-01-10T17:05:25;11.88;;;3.45;;
74519;SDS011;63002;48.134;-1.948;2024-01-10T17:07:51;11.57;;;3.10;;
74519;SDS011;63002;48.134;-1.948;2024-01-10T17:10:17;6.82;;;2.60;;
74519;SDS011;63002;48.134;-1.948;2024-01-10T17:12:43;10.43;;;2.95;;
74519;SDS011;63002;48.134;-1.948;2024-01-10T17:15:09;7.95;;;2.95;;
74519;SDS011;63002;48.134;-1.948;2024-01-10T17:17:35;8.68;;;2.80;;
74519;SDS011;63002;48.134;-1.948;2024-01-10T17:20:01;9.07;;;2.55;;
74519;SDS011;63002;48.134;-1.948;2024-01-10T17:22:28;7.93;;;2.80;;
74519;SDS011;63002;48.134;-1.948;2024-01-10T17:24:55;8.43;;;2.63;;
74519;SDS011;63002;48.134;-1.948;2024-01-10T17:27:21;7.90;;;2.30;;
74519;SDS011;63002;48.134;-1.948;2024-01-10T17:29:47;8.13;;;2.28;;
74519;SDS011;63002;48.134;-1.948;2024-01-10T17:32:12;16.02;;;7.50;;
74519;SDS011;63002;48.134;-1.948;2024-01-10T17:34:38;14.95;;;5.40;;
74519;SDS011;63002;48.134;-1.948;2024-01-10T17:37:04;10.87;;;3.83;;
74519;SDS011;63002;48.134;-1.948;2024-01-10T17:39:30;7.43;;;3.20;;
74519;SDS011;63002;48.134;-1.948;2024-01-10T17:41:55;10.37;;;3.97;;
74519;SDS011;63002;48.134;-1.948;2024-01-10T17:44:21;8.97;;;2.93;;
74519;SDS011;63002;48.134;-1.948;2024-01-10T17:46:47;15.52;;;8.95;;
74519;SDS011;63002;48.134;-1.948;2024-01-10T17:49:13;11.85;;;4.25;;
74519;SDS011;63002;48.134;-1.948;2024-01-10T17:51:39;11.93;;;4.30;;
74519;SDS011;63002;48.134;-1.948;2024-01-10T17:54:05;14.25;;;4.60;;
74519;SDS011;63002;48.134;-1.948;2024-01-10T17:56:31;11.95;;;6.13;;
74519;SDS011;63002;48.134;-1.948;2024-01-10T17:58:59;12.23;;;5.70;;
74519;SDS011;63002;48.134;-1.948;2024-01-10T18:01:28;11.98;;;6.22;;
74519;SDS011;63002;48.134;-1.948;2024-01-10T18:03:53;10.65;;;3.63;;
74519;SDS011;63002;48.134;-1.948;2024-01-10T18:06:19;17.30;;;8.57;;
74519;SDS011;63002;48.134;-1.948;2024-01-10T18:08:45;17.73;;;6.55;;
74519;SDS011;63002;48.134;-1.948;2024-01-10T18:11:10;10.55;;;5.40;;
74519;SDS011;63002;48.134;-1.948;2024-01-10T18:13:36;13.60;;;6.30;;
74519;SDS011;63002;48.134;-1.948;2024-01-10T18:16:02;11.38;;;4.78;;
74519;SDS011;63002;48.134;-1.948;2024-01-10T18:18:28;18.23;;;7.35;;
74519;SDS011;63002;48.134;-1.948;2024-01-10T18:20:59;10.97;;;4.13;;
74519;SDS011;63002;48.134;-1.948;2024-01-10T18:23:25;12.10;;;3.92;;
74519;SDS011;63002;48.134;-1.948;2024-01-10T18:25:50;22.35;;;9.55;;
74519;SDS011;63002;48.134;-1.948;2024-01-10T18:28:16;29.30;;;9.87;;
74519;SDS011;63002;48.134;-1.948;2024-01-10T18:30:42;29.65;;;9.82;;
74519;SDS011;63002;48.134;-1.948;2024-01-10T18:33:07;40.33;;;11.60;;
74519;SDS011;63002;48.134;-1.948;2024-01-10T18:35:34;35.03;;;12.02;;
74519;SDS011;63002;48.134;-1.948;2024-01-10T18:38:00;22.17;;;10.80;;
74519;SDS011;63002;48.134;-1.948;2024-01-10T18:40:26;19.57;;;9.73;;
74519;SDS011;63002;48.134;-1.948;2024-01-10T18:42:52;26.10;;;9.85;;
74519;SDS011;63002;48.134;-1.948;2024-01-10T18:45:18;32.50;;;10.80;;
74519;SDS011;63002;48.134;-1.948;2024-01-10T18:47:43;24.57;;;9.07;;
74519;SDS011;63002;48.134;-1.948;2024-01-10T18:50:09;25.10;;;10.95;;
74519;SDS011;63002;48.134;-1.948;2024-01-10T18:52:35;24.85;;;9.00;;
74519;SDS011;63002;48.134;-1.948;2024-01-10T18:55:00;21.27;;;8.85;;
74519;SDS011;63002;48.134;-1.948;2024-01-10T18:57:26;19.73;;;7.15;;
74519;SDS011;63002;48.134;-1.948;2024-01-10T18:59:52;24.13;;;7.80;;
74519;SDS011;63002;48.134;-1.948;2024-01-10T19:02:18;24.38;;;7.72;;
74519;SDS011;63002;48.134;-1.948;2024-01-10T19:04:44;19.20;;;6.70;;
74519;SDS011;63002;48.134;-1.948;2024-01-10T19:07:10;20.10;;;6.57;;
74519;SDS011;63002;48.134;-1.948;2024-01-10T19:09:35;16.17;;;6.15;;
74519;SDS011;63002;48.134;-1.948;2024-01-10T19:12:02;19.70;;;6.33;;
74519;SDS011;63002;48.134;-1.948;2024-01-10T19:14:29;20.38;;;6.10;;
74519;SDS011;63002;48.134;-1.948;2024-01-10T19:16:59;17.33;;;6.72;;
74519;SDS011;63002;48.134;-1.948;2024-01-10T19:19:25;18.25;;;5.38;;
74519;SDS011;63002;48.134;-1.948;2024-01-10T19:21:51;22.97;;;6.57;;
74519;SDS011;63002;48.134;-1.948;2024-01-10T19:24:17;15.57;;;4.75;;
74519;SDS011;63002;48.134;-1.948;2024-01-10T19:26:44;16.00;;;4.90;;
74519;SDS011;63002;48.134;-1.948;2024-01-10T19:29:10;15.07;;;4.90;;
74519;SDS011;63002;48.134;-1.948;2024-01-10T19:31:36;15.33;;;4.80;;
74519;SDS011;63002;48.134;-1.948;2024-01-10T19:34:02;18.52;;;4.40;;
74519;SDS011;63002;48.134;-1.948;2024-01-10T19:36:34;16.75;;;4.63;;
74519;SDS011;63002;48.134;-1.948;2024-01-10T19:39:00;14.75;;;4.47;;
74519;SDS011;63002;48.134;-1.948;2024-01-10T19:41:29;14.23;;;4.30;;
74519;SDS011;63002;48.134;-1.948;2024-01-10T19:43:54;13.88;;;3.75;;
74519;SDS011;63002;48.134;-1.948;2024-01-10T19:46:20;15.63;;;4.20;;
74519;SDS011;63002;48.134;-1.948;2024-01-10T19:48:47;11.97;;;3.33;;
74519;SDS011;63002;48.134;-1.948;2024-01-10T19:51:14;12.63;;;4.00;;
74519;SDS011;63002;48.134;-1.948;2024-01-10T19:53:40;12.07;;;4.25;;
74519;SDS011;63002;48.134;-1.948;2024-01-10T19:56:13;13.03;;;3.83;;
74519;SDS011;63002;48.134;-1.948;2024-01-10T19:58:40;11.82;;;3.83;;
74519;SDS011;63002;48.134;-1.948;2024-01-10T20:01:06;10.15;;;3.10;;
74519;SDS011;63002;48.134;-1.948;2024-01-10T20:03:32;10.50;;;3.78;;
74519;SDS011;63002;48.134;-1.948;2024-01-10T20:05:58;12.88;;;3.85;;
74519;SDS011;63002;48.134;-1.948;2024-01-10T20:08:23;15.73;;;3.67;;
74519;SDS011;63002;48.134;-1.948;2024-01-10T20:10:49;10.48;;;2.90;;
74519;SDS011;63002;48.134;-1.948;2024-01-10T20:13:15;16.20;;;6.60;;
74519;SDS011;63002;48.134;-1.948;2024-01-10T20:15:40;10.70;;;4.40;;
74519;SDS011;63002;48.134;-1.948;2024-01-10T20:18:06;10.93;;;4.77;;
74519;SDS011;63002;48.134;-1.948;2024-01-10T20:20:32;12.20;;;4.07;;
74519;SDS011;63002;48.134;-1.948;2024-01-10T20:22:58;12.33;;;4.50;;
74519;SDS011;63002;48.134;-1.948;2024-01-10T20:25:24;10.63;;;3.42;;
74519;SDS011;63002;48.134;-1.948;2024-01-10T20:27:52;15.90;;;3.75;;
74519;SDS011;63002;48.134;-1.948;2024-01-10T20:30:24;13.00;;;3.80;;
74519;SDS011;63002;48.134;-1.948;2024-01-10T20:32:50;11.57;;;3.47;;